Time;durP1;ratioP1;P1;durP2;ratioP2;P2;SDS_P1;SDS_P2;PMS_P1;PMS_P2;Temp;Humidity;BMP_temperature;BMP_pressure;BME280_temperature;BME280_humidity;BME280_pressure;Samples;Min_cycle;Max_cycle;Signal;HPM_P1;HPM_P2
2022/07/21 00:02:12;;;;;;;17.50;16.40;;;20.20;99.90;;;;;;6083989;23;20451;-81
2022/07/21 00:04:39;;;;;;;18.37;16.87;;;20.20;99.90;;;;;;6086161;23;20561;-81
2022/07/21 00:07:06;;;;;;;18.70;17.40;;;20.10;99.90;;;;;;6084953;23;20999;-81
2022/07/21 00:09:35;;;;;;;17.70;16.50;;;20.20;99.90;;;;;;6090297;23;20434;-81
2022/07/21 00:12:03;;;;;;;19.80;18.30;;;20.20;99.90;;;;;;6091217;23;20431;-81
2022/07/21 00:14:31;;;;;;;21.37;19.57;;;20.30;99.90;;;;;;6091804;23;20937;-81
2022/07/21 00:16:59;;;;;;;19.33;17.93;;;20.30;99.90;;;;;;6099811;23;20541;-81
2022/07/21 00:19:25;;;;;;;18.73;17.43;;;20.30;99.90;;;;;;6098311;23;20477;-81
2022/07/21 00:21:52;;;;;;;19.40;17.90;;;20.30;99.90;;;;;;6097699;23;20435;-81
2022/07/21 00:24:20;;;;;;;18.57;17.27;;;20.30;99.90;;;;;;6094347;23;20468;-82
2022/07/21 00:26:46;;;;;;;18.77;17.47;;;20.30;99.90;;;;;;6085361;23;20464;-82
2022/07/21 00:29:15;;;;;;;19.57;17.87;;;20.40;99.90;;;;;;6085957;23;20457;-82
2022/07/21 00:31:42;;;;;;;19.70;18.27;;;20.40;99.90;;;;;;6082990;23;20940;-81
2022/07/21 00:34:09;;;;;;;18.50;17.10;;;20.40;99.90;;;;;;6086365;23;20934;-82
2022/07/21 00:36:36;;;;;;;19.80;18.33;;;20.30;99.90;;;;;;6087729;23;20544;-81
2022/07/21 00:39:03;;;;;;;17.00;15.80;;;20.40;99.90;;;;;;6083733;23;20441;-82
2022/07/21 00:41:30;;;;;;;18.20;16.83;;;20.30;99.90;;;;;;6085728;23;20455;-82
2022/07/21 00:43:57;;;;;;;18.80;17.50;;;20.20;99.90;;;;;;6087748;23;20435;-81
2022/07/21 00:46:25;;;;;;;17.33;16.13;;;20.20;99.90;;;;;;6089046;23;20457;-82
2022/07/21 00:48:52;;;;;;;18.43;17.10;;;20.20;99.90;;;;;;6087523;23;20437;-82
2022/07/21 00:51:19;;;;;;;17.73;16.57;;;20.10;99.90;;;;;;6086590;23;20438;-81
2022/07/21 00:53:46;;;;;;;18.43;17.07;;;20.10;99.90;;;;;;6086288;23;20486;-81
2022/07/21 00:56:13;;;;;;;18.80;17.40;;;20.10;99.90;;;;;;6083271;23;20458;-82
2022/07/21 00:58:41;;;;;;;18.60;17.20;;;20.20;99.90;;;;;;6089137;23;20854;-82
2022/07/21 01:01:08;;;;;;;18.57;17.17;;;20.20;99.90;;;;;;6092444;23;20960;-82
2022/07/21 01:03:37;;;;;;;17.73;16.23;;;20.30;99.90;;;;;;6087425;23;20434;-82
2022/07/21 01:06:04;;;;;;;18.00;16.63;;;20.30;99.90;;;;;;6084242;23;20545;-82
2022/07/21 01:08:32;;;;;;;15.43;14.30;;;20.40;99.90;;;;;;6082290;23;20458;-82
2022/07/21 01:10:59;;;;;;;15.50;14.30;;;20.50;99.90;;;;;;6084633;23;20440;-82
2022/07/21 01:13:26;;;;;;;14.40;13.30;;;20.50;99.90;;;;;;6084195;23;21140;-82
2022/07/21 01:15:53;;;;;;;14.30;13.13;;;20.60;99.90;;;;;;6083895;23;20511;-82
2022/07/21 01:18:20;;;;;;;12.90;12.00;;;20.50;99.90;;;;;;6088439;23;20759;-81
2022/07/21 01:20:53;;;;;;;14.23;13.23;;;20.50;99.90;;;;;;6089366;23;20469;-82
2022/07/21 01:23:22;;;;;;;15.00;13.80;;;20.60;99.90;;;;;;6091728;23;20439;-82
2022/07/21 01:25:50;;;;;;;15.77;14.50;;;20.60;99.90;;;;;;6084784;23;22583;-82
2022/07/21 01:28:17;;;;;;;16.50;15.20;;;20.60;99.90;;;;;;6090168;23;20478;-82
2022/07/21 01:30:44;;;;;;;16.97;15.70;;;20.60;99.90;;;;;;6081992;23;20480;-82
2022/07/21 01:33:12;;;;;;;15.93;14.83;;;20.50;99.90;;;;;;6087264;23;20453;-81
2022/07/21 01:35:39;;;;;;;18.50;17.20;;;20.50;99.90;;;;;;6080483;23;20459;-81
2022/07/21 01:41:28;;;;;;;18.87;17.37;;;20.50;99.90;;;;;;6085843;23;21001;-81
2022/07/21 01:43:43;;;;;;;19.87;18.37;;;20.40;99.90;;;;;;6092678;23;20438;-76
2022/07/21 01:46:12;;;;;;;17.80;16.37;;;20.30;99.90;;;;;;6089576;23;20494;-81
2022/07/21 01:48:42;;;;;;;19.30;17.90;;;20.30;99.90;;;;;;6090213;23;20793;-81
2022/07/21 01:51:10;;;;;;;20.67;19.17;;;20.20;99.90;;;;;;6094459;23;20441;-81
2022/07/21 01:53:37;;;;;;;19.90;18.40;;;20.10;99.90;;;;;;6090579;23;20996;-81
2022/07/21 01:56:07;;;;;;;21.60;20.00;;;20.00;99.90;;;;;;6088458;23;20439;-81
2022/07/21 01:58:34;;;;;;;23.37;21.47;;;19.90;99.90;;;;;;6095901;23;20440;-81
2022/07/21 02:01:01;;;;;;;22.30;20.50;;;19.80;99.90;;;;;;6090269;23;20442;-82
2022/07/21 02:03:28;;;;;;;22.83;21.10;;;19.80;99.90;;;;;;6104765;23;20961;-82
2022/07/21 02:06:01;;;;;;;22.50;20.87;;;19.80;99.90;;;;;;6096062;23;20477;-81
2022/07/21 02:08:28;;;;;;;22.00;20.33;;;19.80;99.90;;;;;;6110512;23;20527;-82
2022/07/21 02:10:56;;;;;;;19.63;18.03;;;19.80;99.90;;;;;;6103444;23;20442;-81
2022/07/21 02:13:25;;;;;;;23.13;21.33;;;19.80;99.90;;;;;;6105074;23;20472;-82
2022/07/21 02:15:52;;;;;;;22.53;20.53;;;19.70;99.90;;;;;;6091878;23;20446;-82
2022/07/21 02:18:19;;;;;;;24.90;23.00;;;19.60;99.90;;;;;;6109845;23;20461;-82
2022/07/21 02:20:48;;;;;;;25.20;23.00;;;19.60;99.90;;;;;;6098423;23;20462;-82
2022/07/21 02:23:15;;;;;;;23.10;21.30;;;19.50;99.90;;;;;;6100574;23;20458;-82
2022/07/21 02:25:42;;;;;;;24.20;22.40;;;19.50;99.90;;;;;;6089832;23;20465;-82
2022/07/21 02:28:10;;;;;;;25.60;23.70;;;19.50;99.90;;;;;;6101623;23;20438;-82
2022/07/21 02:30:39;;;;;;;25.80;23.80;;;19.40;99.90;;;;;;6098045;23;20431;-82
2022/07/21 02:33:07;;;;;;;24.60;22.80;;;19.40;99.90;;;;;;6099995;23;20459;-82
2022/07/21 02:35:34;;;;;;;23.57;21.80;;;19.30;99.90;;;;;;6090868;23;21888;-82
2022/07/21 02:38:01;;;;;;;23.53;21.60;;;19.30;99.90;;;;;;6093536;23;20441;-82
2022/07/21 02:40:28;;;;;;;21.70;20.10;;;19.40;99.90;;;;;;6106769;23;20499;-81
2022/07/21 02:42:56;;;;;;;22.03;20.20;;;19.40;99.90;;;;;;6093143;23;20609;-81
2022/07/21 02:45:23;;;;;;;21.70;19.97;;;19.40;99.90;;;;;;6095624;23;20474;-82
2022/07/21 02:47:54;;;;;;;21.83;20.20;;;19.50;99.90;;;;;;6106152;23;20434;-81
2022/07/21 02:50:23;;;;;;;20.97;19.47;;;19.50;99.90;;;;;;6101987;23;20452;-81
2022/07/21 02:52:50;;;;;;;18.40;17.10;;;19.50;99.90;;;;;;6089480;23;20557;-81
2022/07/21 02:55:17;;;;;;;18.37;17.07;;;19.50;99.90;;;;;;6095582;23;20453;-81
2022/07/21 02:57:44;;;;;;;15.40;14.30;;;19.50;99.90;;;;;;6088521;23;20508;-81
2022/07/21 03:00:12;;;;;;;20.27;18.77;;;19.50;99.90;;;;;;6089850;23;20449;-81
2022/07/21 03:02:39;;;;;;;21.57;19.87;;;19.50;99.90;;;;;;6111071;23;20545;-81
2022/07/21 03:05:09;;;;;;;21.73;20.13;;;19.50;99.90;;;;;;6103771;23;20878;-81
2022/07/21 03:07:36;;;;;;;23.20;21.50;;;19.50;99.90;;;;;;6114068;23;20451;-81
2022/07/21 03:10:03;;;;;;;22.90;21.30;;;19.50;99.90;;;;;;6091065;23;20518;-81
2022/07/21 03:12:32;;;;;;;23.80;21.97;;;19.50;99.90;;;;;;6104640;23;20461;-81
2022/07/21 03:14:59;;;;;;;23.90;22.20;;;19.50;99.90;;;;;;6102197;23;20450;-81
2022/07/21 03:17:26;;;;;;;24.77;22.83;;;19.60;99.90;;;;;;6089831;23;20521;-81
2022/07/21 03:19:53;;;;;;;25.20;23.27;;;19.70;99.90;;;;;;6097743;23;20438;-81
2022/07/21 03:22:21;;;;;;;24.40;22.60;;;19.80;99.90;;;;;;6089670;23;20643;-81
2022/07/21 03:24:50;;;;;;;27.60;25.40;;;19.80;99.90;;;;;;6096441;23;20445;-81
2022/07/21 03:27:18;;;;;;;26.07;24.07;;;19.90;99.90;;;;;;6104563;23;20435;-81
2022/07/21 03:29:45;;;;;;;24.90;22.73;;;19.90;99.90;;;;;;6104908;23;20466;-81
2022/07/21 03:32:12;;;;;;;23.17;21.30;;;20.00;99.90;;;;;;6099489;23;20454;-81
2022/07/21 03:34:39;;;;;;;22.83;21.20;;;20.00;99.90;;;;;;6101936;23;20542;-79
2022/07/21 03:37:06;;;;;;;22.70;20.90;;;20.00;99.90;;;;;;6112058;23;20453;-79
2022/07/21 03:39:35;;;;;;;19.17;17.57;;;20.00;99.90;;;;;;6092468;23;20451;-78
2022/07/21 03:42:02;;;;;;;19.97;18.37;;;20.00;99.90;;;;;;6096404;23;20481;-79
2022/07/21 03:44:29;;;;;;;17.90;16.60;;;19.90;99.90;;;;;;6085842;23;20442;-80
2022/07/21 03:46:58;;;;;;;18.67;17.40;;;19.90;99.90;;;;;;6086684;23;20459;-79
2022/07/21 03:49:25;;;;;;;19.30;17.80;;;19.90;99.90;;;;;;6095595;23;20532;-79
2022/07/21 03:51:53;;;;;;;18.80;17.40;;;19.90;99.90;;;;;;6110653;23;20542;-79
2022/07/21 03:54:19;;;;;;;20.37;18.77;;;19.90;99.90;;;;;;6105405;23;20488;-79
2022/07/21 03:56:48;;;;;;;18.43;16.83;;;19.90;99.90;;;;;;6115058;23;20573;-79
2022/07/21 03:59:15;;;;;;;18.30;16.80;;;19.90;99.90;;;;;;6106551;23;20439;-79
2022/07/21 04:01:42;;;;;;;18.20;16.90;;;20.00;99.90;;;;;;6097409;23;20482;-79
2022/07/21 04:04:09;;;;;;;18.83;17.40;;;20.00;99.90;;;;;;6094290;23;20453;-78
2022/07/21 04:06:36;;;;;;;16.97;15.77;;;20.00;99.90;;;;;;6093159;23;20501;-79
2022/07/21 04:09:04;;;;;;;20.23;18.53;;;20.10;99.90;;;;;;6103552;23;20434;-79
2022/07/21 04:11:31;;;;;;;17.87;16.57;;;20.20;99.90;;;;;;6097649;23;20492;-78
2022/07/21 04:14:00;;;;;;;17.00;15.90;;;20.20;99.90;;;;;;6106029;23;20450;-78
2022/07/21 04:16:27;;;;;;;17.40;16.20;;;20.30;99.90;;;;;;6092202;23;20861;-78
2022/07/21 04:18:54;;;;;;;17.07;15.97;;;20.30;99.90;;;;;;6104754;23;20438;-78
2022/07/21 04:21:22;;;;;;;18.10;16.80;;;20.30;99.90;;;;;;6106946;23;20459;-78
2022/07/21 04:23:48;;;;;;;17.00;15.80;;;20.30;99.90;;;;;;6097106;23;20447;-78
2022/07/21 04:26:15;;;;;;;17.73;16.20;;;20.40;99.90;;;;;;6096261;23;20492;-78
2022/07/21 04:28:43;;;;;;;17.57;16.17;;;20.40;99.90;;;;;;6095654;23;20446;-78
2022/07/21 04:31:11;;;;;;;16.60;15.43;;;20.40;99.90;;;;;;6094623;23;20516;-79
2022/07/21 04:33:38;;;;;;;16.17;15.00;;;20.40;99.90;;;;;;6102854;23;20879;-78
2022/07/21 04:36:05;;;;;;;17.00;15.87;;;20.40;99.90;;;;;;6102159;23;20435;-79
2022/07/21 04:38:32;;;;;;;15.50;14.30;;;20.40;99.90;;;;;;6090965;23;20442;-79
2022/07/21 04:40:59;;;;;;;18.10;16.70;;;20.30;99.90;;;;;;6089393;23;20526;-79
2022/07/21 04:43:26;;;;;;;15.97;14.57;;;20.30;99.90;;;;;;6109740;23;20990;-77
2022/07/21 04:45:53;;;;;;;16.17;14.87;;;20.30;99.90;;;;;;6099577;23;20450;-78
2022/07/21 04:48:22;;;;;;;16.63;15.47;;;20.20;99.90;;;;;;6105801;23;20509;-78
2022/07/21 04:50:49;;;;;;;17.63;16.43;;;20.30;99.90;;;;;;6106222;23;21031;-78
2022/07/21 04:53:16;;;;;;;17.17;15.97;;;20.30;99.90;;;;;;6093778;23;20481;-79
2022/07/21 04:55:43;;;;;;;17.53;16.13;;;20.20;99.90;;;;;;6096066;23;20504;-78
2022/07/21 04:58:10;;;;;;;16.73;15.47;;;20.20;99.90;;;;;;6093790;23;21968;-78
2022/07/21 05:00:37;;;;;;;17.20;15.80;;;20.30;99.90;;;;;;6088201;23;20833;-78
2022/07/21 05:03:06;;;;;;;16.67;15.43;;;20.30;99.90;;;;;;6096241;23;20802;-78
2022/07/21 05:05:36;;;;;;;18.07;16.77;;;20.30;99.90;;;;;;6107087;23;20496;-78
2022/07/21 05:08:03;;;;;;;15.83;14.73;;;20.30;99.90;;;;;;6104349;23;20445;-79
2022/07/21 05:10:30;;;;;;;17.73;16.23;;;20.40;99.90;;;;;;6091493;23;20455;-78
2022/07/21 05:12:57;;;;;;;16.73;15.60;;;20.50;99.90;;;;;;6098163;23;20505;-78
2022/07/21 05:15:24;;;;;;;17.40;16.20;;;20.50;99.90;;;;;;6095174;23;20474;-78
2022/07/21 05:17:51;;;;;;;17.00;15.80;;;20.50;99.90;;;;;;6104683;23;20446;-78
2022/07/21 05:20:18;;;;;;;15.83;14.63;;;20.50;99.90;;;;;;6106697;23;20479;-78
2022/07/21 05:22:47;;;;;;;14.83;13.73;;;20.60;99.90;;;;;;6097014;23;21002;-78
2022/07/21 05:25:14;;;;;;;15.20;14.10;;;20.60;99.90;;;;;;6097495;23;20445;-79
2022/07/21 05:27:41;;;;;;;16.37;15.23;;;20.70;99.90;;;;;;6103053;23;20549;-78
2022/07/21 05:30:09;;;;;;;16.07;14.87;;;20.80;99.90;;;;;;6096130;23;20458;-78
2022/07/21 05:32:37;;;;;;;16.33;14.97;;;20.90;99.90;;;;;;6107389;23;20442;-78
2022/07/21 05:35:08;;;;;;;15.90;14.77;;;20.90;99.90;;;;;;6093613;23;20431;-79
2022/07/21 05:37:35;;;;;;;15.53;14.37;;;21.00;99.90;;;;;;6093377;23;20547;-79
2022/07/21 05:40:04;;;;;;;14.77;13.67;;;21.10;99.90;;;;;;6097009;23;20471;-78
2022/07/21 05:42:31;;;;;;;14.57;13.57;;;21.20;99.90;;;;;;6105432;23;20832;-79
2022/07/21 05:44:58;;;;;;;15.90;14.80;;;21.20;99.90;;;;;;6092025;23;20510;-79
2022/07/21 05:47:25;;;;;;;14.70;13.60;;;21.20;99.90;;;;;;6115524;23;20466;-79
2022/07/21 05:49:52;;;;;;;15.63;14.53;;;21.20;99.90;;;;;;6091151;23;21634;-78
2022/07/21 05:52:19;;;;;;;15.50;14.20;;;21.20;99.90;;;;;;6091794;23;20480;-78
2022/07/21 05:54:46;;;;;;;14.07;12.90;;;21.40;99.90;;;;;;6091007;23;20499;-78
2022/07/21 05:57:14;;;;;;;13.87;12.87;;;21.50;99.90;;;;;;6090842;23;20516;-78
2022/07/21 05:59:42;;;;;;;14.40;13.40;;;21.50;99.90;;;;;;6105938;23;20809;-78
2022/07/21 06:02:09;;;;;;;15.27;14.17;;;21.60;99.90;;;;;;6102309;23;20475;-78
2022/07/21 06:04:36;;;;;;;14.17;13.13;;;21.70;99.90;;;;;;6088724;23;20941;-78
2022/07/21 06:07:03;;;;;;;14.30;13.30;;;21.80;99.90;;;;;;6100386;23;20548;-78
2022/07/21 06:09:30;;;;;;;13.20;12.20;;;21.80;99.90;;;;;;6109746;23;20458;-78
2022/07/21 06:11:58;;;;;;;13.73;12.73;;;21.80;99.90;;;;;;6092929;23;20501;-78
2022/07/21 06:14:26;;;;;;;13.27;12.27;;;21.80;99.90;;;;;;6090487;23;20944;-78
2022/07/21 06:16:53;;;;;;;12.93;12.03;;;21.90;99.90;;;;;;6108696;23;20434;-78
2022/07/21 06:19:20;;;;;;;13.90;12.90;;;22.00;99.90;;;;;;6108621;23;20453;-78
2022/07/21 06:21:47;;;;;;;12.70;11.87;;;21.90;99.90;;;;;;6102671;23;20440;-78
2022/07/21 06:24:14;;;;;;;14.87;13.67;;;21.90;99.90;;;;;;6089601;23;20481;-78
2022/07/21 06:26:41;;;;;;;14.87;13.50;;;21.90;99.90;;;;;;6094028;23;21099;-78
2022/07/21 06:29:08;;;;;;;13.27;12.20;;;22.00;99.90;;;;;;6090533;23;21347;-78
2022/07/21 06:31:38;;;;;;;13.47;12.57;;;22.00;99.90;;;;;;6106299;23;20451;-79
2022/07/21 06:34:06;;;;;;;13.33;12.43;;;21.90;99.90;;;;;;6097525;23;20443;-78
2022/07/21 06:36:33;;;;;;;12.67;11.73;;;21.90;99.90;;;;;;6102011;23;20865;-78
2022/07/21 06:39:00;;;;;;;12.10;11.20;;;21.80;99.90;;;;;;6091018;23;20454;-79
2022/07/21 06:41:27;;;;;;;12.90;11.90;;;21.90;99.90;;;;;;6094555;23;20465;-79
2022/07/21 06:43:54;;;;;;;12.60;11.70;;;21.80;99.90;;;;;;6101369;23;20438;-79
2022/07/21 06:46:21;;;;;;;13.13;12.23;;;22.00;99.90;;;;;;6095931;23;20462;-79
2022/07/21 06:48:50;;;;;;;12.50;11.60;;;22.10;99.90;;;;;;6111418;23;20453;-79
2022/07/21 06:51:17;;;;;;;12.27;11.37;;;22.20;99.90;;;;;;6102555;23;20447;-79
2022/07/21 06:53:44;;;;;;;12.43;11.53;;;22.20;99.90;;;;;;6103215;23;20953;-79
2022/07/21 06:56:11;;;;;;;12.17;11.20;;;22.20;99.90;;;;;;6100056;23;20438;-79
2022/07/21 06:58:38;;;;;;;11.93;11.13;;;22.30;99.90;;;;;;6100821;23;21165;-79
2022/07/21 07:01:06;;;;;;;11.83;11.00;;;22.40;99.90;;;;;;6094067;23;20439;-79
2022/07/21 07:03:33;;;;;;;11.93;11.10;;;22.50;99.90;;;;;;6091916;23;20454;-79
2022/07/21 07:06:01;;;;;;;12.03;11.10;;;22.60;99.90;;;;;;6101803;23;20480;-79
2022/07/21 07:08:29;;;;;;;12.00;11.10;;;22.60;99.90;;;;;;6106650;23;20484;-80
2022/07/21 07:10:56;;;;;;;11.87;10.77;;;22.60;99.90;;;;;;6115439;23;20467;-79
2022/07/21 07:13:23;;;;;;;10.60;9.70;;;22.60;99.90;;;;;;6092572;23;21193;-79
2022/07/21 07:15:50;;;;;;;10.90;10.03;;;22.60;99.90;;;;;;6088906;23;20929;-79
2022/07/21 07:18:20;;;;;;;11.23;10.43;;;22.60;99.90;;;;;;6096315;23;20454;-79
2022/07/21 07:20:47;;;;;;;12.00;11.10;;;22.50;99.90;;;;;;6104011;23;20482;-79
2022/07/21 07:23:15;;;;;;;11.07;10.27;;;22.60;99.90;;;;;;6107744;23;20438;-79
2022/07/21 07:25:42;;;;;;;10.50;9.80;;;22.70;99.90;;;;;;6112492;23;20869;-80
2022/07/21 07:28:10;;;;;;;10.10;9.40;;;23.10;99.90;;;;;;6100750;23;72255;-80
2022/07/21 07:30:37;;;;;;;11.40;10.30;;;23.50;99.90;;;;;;6103668;23;20514;-80
2022/07/21 07:33:04;;;;;;;11.17;10.27;;;23.80;99.90;;;;;;6094850;23;20577;-80
2022/07/21 07:35:31;;;;;;;10.57;9.77;;;23.80;99.90;;;;;;6110710;23;20438;-80
2022/07/21 07:37:58;;;;;;;9.03;8.33;;;24.30;99.90;;;;;;6099901;23;20470;-80
2022/07/21 07:40:27;;;;;;;9.00;8.30;;;25.00;99.90;;;;;;6091738;23;20450;-80
2022/07/21 07:42:54;;;;;;;8.43;7.93;;;25.40;99.90;;;;;;6098615;23;20453;-80
2022/07/21 07:45:21;;;;;;;9.70;9.00;;;25.60;99.90;;;;;;6098050;23;20439;-81
2022/07/21 07:47:48;;;;;;;9.17;8.43;;;26.20;99.90;;;;;;6091076;23;20479;-80
2022/07/21 07:50:16;;;;;;;8.10;7.50;;;26.60;99.90;;;;;;6090609;23;20541;-80
2022/07/21 07:52:45;;;;;;;8.20;7.57;;;26.80;99.90;;;;;;6107493;23;20805;-80
2022/07/21 07:55:13;;;;;;;7.87;7.27;;;27.20;99.90;;;;;;6113601;23;20435;-81
2022/07/21 07:57:44;;;;;;;7.83;7.23;;;27.80;99.90;;;;;;6102020;23;20811;-80
2022/07/21 08:00:14;;;;;;;8.03;7.43;;;28.10;99.90;;;;;;6105534;23;20541;-81
2022/07/21 08:02:41;;;;;;;8.63;8.03;;;28.20;99.90;;;;;;6096199;23;20496;-80
2022/07/21 08:05:09;;;;;;;8.80;8.20;;;27.60;99.90;;;;;;6099344;23;20897;-80
2022/07/21 08:07:39;;;;;;;7.87;7.37;;;27.20;99.90;;;;;;6101789;23;20466;-80
2022/07/21 08:10:06;;;;;;;9.03;8.20;;;27.10;99.90;;;;;;6103735;23;20434;-80
2022/07/21 08:12:33;;;;;;;7.10;6.60;;;26.60;99.90;;;;;;6099191;23;20450;-81
2022/07/21 08:15:02;;;;;;;7.87;7.37;;;26.60;99.90;;;;;;6108428;23;20440;-81
2022/07/21 08:17:29;;;;;;;7.30;6.80;;;26.80;99.90;;;;;;6100353;23;20458;-81
2022/07/21 08:19:56;;;;;;;8.07;7.40;;;27.60;99.90;;;;;;6101275;23;20439;-81
2022/07/21 08:22:23;;;;;;;7.40;6.90;;;28.60;99.90;;;;;;6092605;23;20451;-81
2022/07/21 08:24:51;;;;;;;6.80;6.40;;;29.50;99.90;;;;;;6100134;23;20434;-80
2022/07/21 08:27:18;;;;;;;6.83;6.33;;;29.80;99.90;;;;;;6107596;23;20461;-81
2022/07/21 08:29:46;;;;;;;7.07;6.60;;;29.90;99.90;;;;;;6095390;23;20436;-80
2022/07/21 08:32:15;;;;;;;7.20;6.70;;;30.60;99.40;;;;;;6093430;23;20445;-81
2022/07/21 08:34:42;;;;;;;7.90;7.20;;;31.00;98.10;;;;;;6094098;23;20454;-81
2022/07/21 08:37:09;;;;;;;7.07;6.57;;;31.20;98.00;;;;;;6094244;23;21559;-81
2022/07/21 08:39:36;;;;;;;6.30;5.90;;;31.10;97.60;;;;;;6117125;23;20441;-81
2022/07/21 08:42:03;;;;;;;6.20;5.70;;;30.80;97.40;;;;;;6090769;23;20445;-81
2022/07/21 08:44:32;;;;;;;6.13;5.73;;;30.70;96.20;;;;;;6099237;23;20487;-82
2022/07/21 08:46:58;;;;;;;6.60;6.00;;;30.50;95.80;;;;;;6102066;23;20526;-81
2022/07/21 08:49:28;;;;;;;6.60;6.00;;;30.70;96.00;;;;;;6094727;23;20435;-81
2022/07/21 08:51:56;;;;;;;6.47;5.90;;;30.00;94.80;;;;;;6098736;23;20440;-81
2022/07/21 08:54:23;;;;;;;6.50;5.77;;;29.50;95.80;;;;;;6113682;23;20984;-81
2022/07/21 08:56:51;;;;;;;6.30;5.80;;;29.40;96.00;;;;;;6107171;23;20458;-80
2022/07/21 08:59:18;;;;;;;6.23;5.83;;;29.20;97.00;;;;;;6096111;23;20434;-81
2022/07/21 09:01:45;;;;;;;6.10;5.60;;;29.60;95.60;;;;;;6098165;23;20530;-81
2022/07/21 09:04:23;;;;;;;6.50;5.90;;;29.60;96.20;;;;;;6096253;23;20509;-81
2022/07/21 09:06:54;;;;;;;6.60;6.17;;;30.10;95.60;;;;;;6095907;23;20490;-81
2022/07/21 09:09:22;;;;;;;6.70;6.27;;;30.10;94.40;;;;;;6090104;23;20447;-81
2022/07/21 09:11:49;;;;;;;6.47;5.97;;;29.90;94.70;;;;;;6109567;23;20440;-81
2022/07/21 09:14:18;;;;;;;6.43;6.03;;;29.90;95.00;;;;;;6100804;23;20447;-81
2022/07/21 09:16:47;;;;;;;6.93;6.33;;;30.30;95.50;;;;;;6097188;23;20456;-82
2022/07/21 09:19:19;;;;;;;5.90;5.50;;;30.80;94.70;;;;;;6105927;23;20430;-81
2022/07/21 09:21:47;;;;;;;5.60;5.10;;;31.20;92.70;;;;;;6101775;23;20437;-81
2022/07/21 09:24:19;;;;;;;6.20;5.70;;;31.40;91.00;;;;;;6107407;23;20434;-81
2022/07/21 09:27:07;;;;;;;5.77;5.37;;;31.20;92.20;;;;;;6103526;23;20514;-81
2022/07/21 09:29:43;;;;;;;5.47;5.17;;;31.60;90.40;;;;;;6100434;23;20449;-81
2022/07/21 09:32:16;;;;;;;5.53;5.13;;;31.70;89.30;;;;;;6107403;23;20469;-81
2022/07/21 09:34:43;;;;;;;5.37;5.00;;;31.10;90.20;;;;;;6089504;23;20512;-81
2022/07/21 09:37:11;;;;;;;6.20;5.77;;;30.90;90.90;;;;;;6091555;23;20443;-81
2022/07/21 09:39:45;;;;;;;6.27;5.77;;;31.60;91.20;;;;;;6093844;23;20876;-81
2022/07/21 09:42:24;;;;;;;5.60;5.20;;;32.40;90.40;;;;;;6109385;23;20441;-81
2022/07/21 09:44:54;;;;;;;5.70;5.20;;;33.20;86.10;;;;;;6095837;23;20465;-81
2022/07/21 09:47:24;;;;;;;6.10;5.50;;;33.20;85.20;;;;;;6089088;23;20458;-82
2022/07/21 09:49:51;;;;;;;5.70;5.23;;;34.20;85.70;;;;;;6116782;23;20473;-81
2022/07/21 09:52:24;;;;;;;5.47;5.17;;;34.70;83.20;;;;;;6113663;23;20441;-82
2022/07/21 09:54:54;;;;;;;5.30;4.90;;;35.20;80.50;;;;;;6094730;23;20513;-82
2022/07/21 09:57:22;;;;;;;5.97;5.57;;;34.80;81.70;;;;;;6089799;23;20439;-81
2022/07/21 09:59:50;;;;;;;6.20;5.27;;;34.40;79.60;;;;;;6100160;23;20450;-82
2022/07/21 10:02:20;;;;;;;6.00;5.60;;;33.80;80.00;;;;;;6098659;23;20480;-81
2022/07/21 10:04:54;;;;;;;6.00;5.60;;;33.00;81.70;;;;;;6094969;23;20511;-81
2022/07/21 10:07:23;;;;;;;6.90;6.50;;;32.10;84.80;;;;;;6091469;23;20860;-81
2022/07/21 10:09:50;;;;;;;6.00;5.60;;;31.50;86.10;;;;;;6105679;23;20443;-81
2022/07/21 10:12:18;;;;;;;6.30;5.90;;;30.80;87.40;;;;;;6095228;23;20469;-81
2022/07/21 10:14:46;;;;;;;6.27;5.87;;;30.00;89.60;;;;;;6100873;23;20472;-82
2022/07/21 10:17:14;;;;;;;5.70;5.30;;;29.30;90.40;;;;;;6098751;23;20500;-82
2022/07/21 10:19:52;;;;;;;5.97;5.57;;;28.70;91.20;;;;;;6095143;23;20448;-81
2022/07/21 10:22:30;;;;;;;6.00;5.60;;;28.30;92.30;;;;;;6091306;23;20436;-81
2022/07/21 10:24:58;;;;;;;6.17;5.67;;;28.00;92.70;;;;;;6097402;23;20560;-82
2022/07/21 10:27:26;;;;;;;5.90;5.50;;;28.00;93.70;;;;;;6094550;23;20475;-82
2022/07/21 10:30:01;;;;;;;5.80;5.40;;;28.70;93.00;;;;;;6087211;23;20448;-82
2022/07/21 10:32:31;;;;;;;5.73;5.33;;;30.00;91.70;;;;;;6104636;23;20439;-82
2022/07/21 10:35:00;;;;;;;5.67;5.23;;;31.60;90.00;;;;;;6090392;23;20471;-82
2022/07/21 10:37:49;;;;;;;5.90;5.50;;;32.80;86.80;;;;;;6095320;23;20445;-82
2022/07/21 10:40:39;;;;;;;5.00;4.60;;;33.90;80.20;;;;;;6089029;23;20445;-82
2022/07/21 10:43:38;;;;;;;4.90;4.60;;;34.60;74.50;;;;;;6089140;23;20557;-82
2022/07/21 10:46:36;;;;;;;5.10;4.70;;;34.80;75.70;;;;;;6097816;23;20452;-84
2022/07/21 10:49:06;;;;;;;5.20;4.80;;;34.80;74.80;;;;;;6107585;23;20466;-82
2022/07/21 10:51:37;;;;;;;4.70;4.40;;;35.30;74.20;;;;;;6098270;23;21116;-82
2022/07/21 10:54:25;;;;;;;5.23;4.60;;;35.20;66.90;;;;;;6091969;23;20480;-82
2022/07/21 10:57:28;;;;;;;4.50;4.20;;;34.50;71.10;;;;;;6088809;23;20427;-82
2022/07/21 11:00:19;;;;;;;4.90;4.60;;;33.80;69.90;;;;;;6102494;23;20438;-82
2022/07/21 11:02:48;;;;;;;5.87;5.37;;;33.80;72.50;;;;;;6095653;23;20469;-82
2022/07/21 11:05:15;;;;;;;5.83;5.33;;;33.50;70.90;;;;;;6098606;23;20515;-82
2022/07/21 11:08:11;;;;;;;5.27;4.87;;;32.70;73.70;;;;;;6094146;23;20489;-82
2022/07/21 11:10:43;;;;;;;4.90;4.50;;;32.10;76.70;;;;;;6088586;23;20458;-82
2022/07/21 11:13:11;;;;;;;5.63;5.13;;;31.70;78.10;;;;;;6088852;23;20853;-82
2022/07/21 11:15:56;;;;;;;4.87;4.47;;;31.90;76.20;;;;;;6091546;23;20436;-82
2022/07/21 11:18:26;;;;;;;4.67;4.33;;;32.10;76.20;;;;;;6097095;23;20448;-82
2022/07/21 11:21:13;;;;;;;5.40;5.00;;;32.40;74.10;;;;;;6091485;23;20942;-83
2022/07/21 11:23:46;;;;;;;4.30;4.10;;;33.00;73.10;;;;;;6092445;23;20454;-82
2022/07/21 11:26:15;;;;;;;4.80;4.43;;;32.40;72.00;;;;;;6098541;23;20453;-82
2022/07/21 11:28:43;;;;;;;5.20;4.80;;;32.20;74.30;;;;;;6095048;23;20548;-82
2022/07/21 11:31:15;;;;;;;4.90;4.50;;;32.70;72.30;;;;;;6093289;23;21449;-82
2022/07/21 11:33:46;;;;;;;5.00;4.57;;;33.40;70.40;;;;;;6113971;23;20465;-82
2022/07/21 11:36:24;;;;;;;4.50;4.20;;;33.50;67.90;;;;;;6115177;23;20494;-82
2022/07/21 11:39:04;;;;;;;4.47;4.17;;;33.20;70.20;;;;;;6102859;23;20790;-82
2022/07/21 11:41:31;;;;;;;4.70;4.40;;;33.90;70.00;;;;;;6095895;23;20454;-82
2022/07/21 11:43:59;;;;;;;4.73;4.30;;;34.40;68.30;;;;;;6096127;23;20442;-83
2022/07/21 11:46:27;;;;;;;4.87;4.47;;;34.80;66.60;;;;;;6089181;23;20446;-86
2022/07/21 11:49:02;;;;;;;4.50;4.20;;;35.00;64.30;;;;;;6102396;23;20494;-83
2022/07/21 11:51:29;;;;;;;4.93;4.63;;;34.50;64.50;;;;;;6091163;23;20973;-82
2022/07/21 11:53:57;;;;;;;5.30;4.90;;;33.80;66.50;;;;;;6092405;23;20866;-83
2022/07/21 11:56:24;;;;;;;5.77;5.37;;;33.50;67.00;;;;;;6107645;23;20489;-81
2022/07/21 11:59:10;;;;;;;5.77;5.27;;;33.00;67.80;;;;;;6097658;23;20444;-82
2022/07/21 12:01:54;;;;;;;5.83;5.43;;;32.50;69.10;;;;;;6097265;23;21662;-81
2022/07/21 12:04:43;;;;;;;5.60;5.20;;;31.90;70.00;;;;;;6114808;23;20444;-82
2022/07/21 12:07:16;;;;;;;6.50;6.00;;;31.70;70.10;;;;;;6108491;23;20569;-80
2022/07/21 12:09:46;;;;;;;6.37;5.80;;;31.20;71.80;;;;;;6096899;23;20877;-82
2022/07/21 12:12:13;;;;;;;6.27;5.70;;;30.70;73.10;;;;;;6091824;23;20460;-84
2022/07/21 12:14:42;;;;;;;6.40;6.00;;;30.60;74.90;;;;;;6097253;23;20549;-83
2022/07/21 12:17:11;;;;;;;5.90;5.50;;;30.60;74.90;;;;;;6107602;23;20449;-83
2022/07/21 12:19:38;;;;;;;6.70;6.10;;;30.80;75.60;;;;;;6095511;23;21409;-84
2022/07/21 12:22:06;;;;;;;6.10;5.60;;;31.40;74.70;;;;;;6105889;23;20499;-83
2022/07/21 12:24:51;;;;;;;5.93;5.53;;;32.10;73.50;;;;;;6096769;23;20530;-84
2022/07/21 12:27:19;;;;;;;6.17;5.67;;;32.40;72.20;;;;;;6094244;23;20526;-84
2022/07/21 12:29:46;;;;;;;6.50;5.90;;;32.60;71.20;;;;;;6091319;23;20466;-84
2022/07/21 12:32:36;;;;;;;7.00;6.40;;;32.30;72.00;;;;;;6108525;23;20489;-84
2022/07/21 12:35:04;;;;;;;6.03;5.70;;;32.10;73.30;;;;;;6097387;23;20771;-85
2022/07/21 12:37:52;;;;;;;7.13;6.53;;;32.40;73.20;;;;;;6092221;23;20446;-86
2022/07/21 12:40:20;;;;;;;6.20;5.80;;;32.90;72.30;;;;;;6092633;23;20542;-85
2022/07/21 12:42:48;;;;;;;5.53;5.13;;;33.30;71.60;;;;;;6103565;23;20454;-85
2022/07/21 12:45:17;;;;;;;6.47;5.97;;;33.60;70.60;;;;;;6092433;23;20446;-86
2022/07/21 12:48:08;;;;;;;6.50;5.90;;;33.50;69.30;;;;;;6090484;23;20491;-82
2022/07/21 12:50:38;;;;;;;5.80;5.40;;;33.40;70.70;;;;;;6092993;23;20481;-84